Time;durP1;ratioP1;P1;durP2;ratioP2;P2;SDS_P1;SDS_P2;PMS_P1;PMS_P2;Temp;Humidity;BMP_temperature;BMP_pressure;BME280_temperature;BME280_humidity;BME280_pressure;Samples;Min_cycle;Max_cycle;Signal;HPM_P1;HPM_P2
2022/07/30 00:00:09;;;;;;;1.77;1.45;;;22.20;52.20;;;;;;4813671;29;20043;-75
2022/07/30 00:02:35;;;;;;;1.38;1.20;;;22.20;52.40;;;;;;4811932;29;20041;-74
2022/07/30 00:05:01;;;;;;;3.35;1.63;;;22.10;52.90;;;;;;4814954;29;20077;-74
2022/07/30 00:07:27;;;;;;;1.58;1.40;;;22.10;52.40;;;;;;4815871;29;20037;-75
2022/07/30 00:09:53;;;;;;;2.63;1.60;;;22.10;52.50;;;;;;4813694;29;20031;-76
2022/07/30 00:12:19;;;;;;;1.73;1.30;;;22.00;52.40;;;;;;4812178;29;20037;-76
2022/07/30 00:14:45;;;;;;;2.38;1.33;;;22.00;52.50;;;;;;4813138;29;20027;-76
2022/07/30 00:17:11;;;;;;;1.83;1.10;;;22.00;52.60;;;;;;4814677;29;20038;-76
2022/07/30 00:19:37;;;;;;;1.65;1.20;;;21.90;52.50;;;;;;4817098;29;20648;-76
2022/07/30 00:22:03;;;;;;;2.67;1.80;;;21.90;52.60;;;;;;4809928;29;20034;-76
2022/07/30 00:24:28;;;;;;;1.30;1.20;;;21.90;52.70;;;;;;4816793;29;20038;-76
2022/07/30 00:26:54;;;;;;;2.25;1.63;;;21.80;52.60;;;;;;4816942;29;20039;-76
2022/07/30 00:29:20;;;;;;;4.20;2.00;;;21.80;52.70;;;;;;4815843;29;20451;-76
2022/07/30 00:31:46;;;;;;;3.03;1.77;;;21.80;52.80;;;;;;4798499;29;20026;-76
2022/07/30 00:34:12;;;;;;;2.00;1.52;;;21.70;52.80;;;;;;4800575;29;20095;-76
2022/07/30 00:36:38;;;;;;;2.97;1.40;;;21.70;52.90;;;;;;4816491;29;20107;-75
2022/07/30 00:39:05;;;;;;;2.15;1.50;;;21.70;53.00;;;;;;4800976;29;20119;-76
2022/07/30 00:41:31;;;;;;;3.95;1.90;;;21.70;53.00;;;;;;4814623;29;20125;-76
2022/07/30 00:43:57;;;;;;;2.10;1.50;;;21.60;53.00;;;;;;4816862;29;20345;-76
2022/07/30 00:46:23;;;;;;;2.05;1.30;;;21.50;52.90;;;;;;4815465;29;20065;-76
2022/07/30 00:48:50;;;;;;;3.28;1.75;;;21.50;53.00;;;;;;4812325;29;20031;-76
2022/07/30 00:51:16;;;;;;;2.08;1.38;;;21.50;53.10;;;;;;4817176;29;20032;-76
2022/07/30 00:53:42;;;;;;;1.40;1.30;;;21.40;53.00;;;;;;4810254;29;20030;-76
2022/07/30 00:56:08;;;;;;;1.45;1.15;;;21.40;53.20;;;;;;4817891;29;20031;-76
2022/07/30 00:58:34;;;;;;;4.20;1.42;;;21.30;53.10;;;;;;4792812;29;20440;-76
2022/07/30 01:00:59;;;;;;;2.67;1.63;;;21.30;53.20;;;;;;4810924;29;20061;-75
2022/07/30 01:03:25;;;;;;;3.60;1.80;;;21.30;53.30;;;;;;4832269;29;20061;-77
2022/07/30 01:05:51;;;;;;;1.83;1.40;;;21.30;53.40;;;;;;4832027;29;20223;-76
2022/07/30 01:08:17;;;;;;;1.75;1.50;;;21.20;53.40;;;;;;4816166;29;20034;-76
2022/07/30 01:10:43;;;;;;;2.58;1.55;;;21.20;53.50;;;;;;4817505;29;20086;-76
2022/07/30 01:13:09;;;;;;;2.92;1.50;;;21.20;53.60;;;;;;4815385;29;20791;-76
2022/07/30 01:15:36;;;;;;;2.15;1.50;;;21.10;53.50;;;;;;4815598;29;20053;-76
2022/07/30 01:18:05;;;;;;;2.05;1.50;;;21.00;53.40;;;;;;4797220;29;20535;-76
2022/07/30 01:20:47;;;;;;;3.13;1.70;;;21.00;53.60;;;;;;4785115;29;20030;-76
2022/07/30 01:23:34;;;;;;;1.75;1.50;;;21.00;53.70;;;;;;4814024;29;20168;-76
2022/07/30 01:26:08;;;;;;;3.30;1.70;;;20.90;53.60;;;;;;4807829;29;20620;-76
2022/07/30 01:28:47;;;;;;;2.22;1.83;;;20.90;53.60;;;;;;4813151;29;20031;-76
2022/07/30 01:31:15;;;;;;;3.38;1.70;;;20.90;53.70;;;;;;4810124;29;20679;-76
2022/07/30 01:33:46;;;;;;;2.88;1.70;;;20.90;53.70;;;;;;4812865;29;20073;-76
2022/07/30 01:36:15;;;;;;;1.65;1.50;;;20.80;53.70;;;;;;4815703;29;20061;-76
2022/07/30 01:38:45;;;;;;;2.10;1.88;;;20.80;53.70;;;;;;4813833;29;20042;-76
2022/07/30 01:41:14;;;;;;;3.22;1.88;;;20.80;53.90;;;;;;4805098;29;20033;-76
2022/07/30 01:43:41;;;;;;;2.78;2.10;;;20.80;53.90;;;;;;4813681;29;20040;-77
2022/07/30 01:46:10;;;;;;;2.22;1.95;;;20.70;53.90;;;;;;4815977;29;20038;-76
2022/07/30 01:48:41;;;;;;;2.38;1.77;;;20.70;54.00;;;;;;4800137;29;20581;-76
2022/07/30 01:51:11;;;;;;;2.78;1.70;;;20.70;54.00;;;;;;4799865;29;20046;-76
2022/07/30 01:53:41;;;;;;;2.97;1.73;;;20.70;54.10;;;;;;4799786;29;20069;-76
2022/07/30 01:56:10;;;;;;;2.45;1.60;;;20.70;54.20;;;;;;4801354;29;20126;-75
2022/07/30 01:58:40;;;;;;;2.85;1.70;;;20.60;54.00;;;;;;4799208;29;20099;-77
2022/07/30 02:01:17;;;;;;;2.58;1.80;;;20.60;54.20;;;;;;4799300;29;20039;-76
2022/07/30 02:03:43;;;;;;;2.03;1.45;;;20.60;54.20;;;;;;4814263;29;20046;-76
2022/07/30 02:06:18;;;;;;;3.50;1.55;;;20.60;54.30;;;;;;4799665;29;20030;-76
2022/07/30 02:08:51;;;;;;;3.83;1.77;;;20.50;54.30;;;;;;4814276;29;20054;-75
2022/07/30 02:12:27;;;;;;;;;;;20.50;54.30;;;;;;4807121;29;20041;-76
2022/07/30 02:14:17;;;;;;;3.40;1.80;;;20.50;54.20;;;;;;4799448;29;19927;-75
2022/07/30 02:16:48;;;;;;;2.67;1.85;;;20.50;54.20;;;;;;4799926;29;20485;-76
2022/07/30 02:19:15;;;;;;;2.35;1.60;;;20.40;54.20;;;;;;4816445;29;20438;-76
2022/07/30 02:21:46;;;;;;;2.13;1.85;;;20.40;54.30;;;;;;4800913;29;20051;-76
2022/07/30 02:24:16;;;;;;;1.98;1.65;;;20.40;54.40;;;;;;4802602;29;20541;-75
2022/07/30 02:26:46;;;;;;;3.17;1.65;;;20.30;54.40;;;;;;4812347;29;20189;-76
2022/07/30 02:29:15;;;;;;;1.65;1.55;;;20.30;54.50;;;;;;4803243;29;20040;-76
2022/07/30 02:31:41;;;;;;;2.38;1.70;;;20.30;54.60;;;;;;4815730;29;20027;-75
2022/07/30 02:34:08;;;;;;;3.17;1.90;;;20.20;54.50;;;;;;4803796;29;20041;-76
2022/07/30 02:36:35;;;;;;;2.22;2.00;;;20.20;54.70;;;;;;4802975;29;20023;-76
2022/07/30 02:39:02;;;;;;;2.33;1.90;;;20.10;54.60;;;;;;4799343;29;20097;-75
2022/07/30 02:41:30;;;;;;;3.17;1.83;;;20.10;54.70;;;;;;4815581;29;20512;-76
2022/07/30 02:44:00;;;;;;;2.45;2.10;;;20.10;54.80;;;;;;4798459;29;20195;-76
2022/07/30 02:46:28;;;;;;;3.78;1.55;;;20.10;54.90;;;;;;4798742;29;20026;-76
2022/07/30 02:49:15;;;;;;;2.50;1.80;;;20.00;54.80;;;;;;4814666;29;20125;-76
2022/07/30 02:51:42;;;;;;;2.13;1.70;;;20.00;54.90;;;;;;4813074;29;20241;-76
2022/07/30 02:54:09;;;;;;;3.38;2.00;;;20.00;55.00;;;;;;4798444;29;20524;-76
2022/07/30 02:56:37;;;;;;;5.68;1.58;;;20.00;55.10;;;;;;4806677;29;20097;-76
2022/07/30 02:59:05;;;;;;;1.92;1.80;;;19.90;55.00;;;;;;4798824;29;20026;-75
2022/07/30 03:01:32;;;;;;;2.78;1.80;;;19.90;55.10;;;;;;4799033;29;20034;-76
2022/07/30 03:03:59;;;;;;;1.63;1.50;;;19.90;55.20;;;;;;4799315;29;20042;-76
2022/07/30 03:06:25;;;;;;;2.03;1.83;;;19.90;55.30;;;;;;4798674;29;20022;-76
2022/07/30 03:08:53;;;;;;;2.95;1.95;;;19.80;55.20;;;;;;4813248;29;20038;-76
2022/07/30 03:11:20;;;;;;;2.72;2.03;;;19.80;55.30;;;;;;4813353;29;20057;-76
2022/07/30 03:13:47;;;;;;;2.40;1.90;;;19.80;55.40;;;;;;4797885;29;20034;-76
2022/07/30 03:16:16;;;;;;;2.00;1.80;;;19.80;55.40;;;;;;4815655;29;20073;-76
2022/07/30 03:18:42;;;;;;;2.63;1.80;;;19.80;55.50;;;;;;4781901;29;20033;-76
2022/07/30 03:21:10;;;;;;;2.38;1.67;;;19.80;55.60;;;;;;4812931;29;20129;-75
2022/07/30 03:23:40;;;;;;;2.10;1.88;;;19.80;55.70;;;;;;4784064;29;20054;-76
2022/07/30 03:26:08;;;;;;;2.38;1.50;;;19.80;55.70;;;;;;4813380;29;20026;-76
2022/07/30 03:28:39;;;;;;;2.35;2.15;;;19.70;55.60;;;;;;4791064;29;20485;-76
2022/07/30 03:31:06;;;;;;;2.10;1.90;;;19.70;55.70;;;;;;4812687;29;20185;-75
2022/07/30 03:33:35;;;;;;;2.53;1.92;;;19.70;55.70;;;;;;4797137;29;20318;-75
2022/07/30 03:36:02;;;;;;;1.98;1.77;;;19.70;55.80;;;;;;4815332;29;20034;-75
2022/07/30 03:38:29;;;;;;;2.03;1.83;;;19.60;55.70;;;;;;4798029;29;20583;-76
2022/07/30 03:40:56;;;;;;;2.63;1.60;;;19.60;55.80;;;;;;4798149;29;20030;-76
2022/07/30 03:43:24;;;;;;;3.63;1.88;;;19.60;55.80;;;;;;4813362;29;20039;-76
2022/07/30 03:45:52;;;;;;;2.08;1.65;;;19.60;55.90;;;;;;4813061;29;20477;-76
2022/07/30 03:48:21;;;;;;;4.95;1.80;;;19.60;56.00;;;;;;4796340;29;20186;-75
2022/07/30 03:50:50;;;;;;;4.13;2.47;;;19.60;56.10;;;;;;4812743;29;20037;-75
2022/07/30 03:53:18;;;;;;;2.30;1.67;;;19.50;55.90;;;;;;4797920;29;20122;-75
2022/07/30 03:56:03;;;;;;;1.73;1.30;;;19.50;56.00;;;;;;4814509;29;20396;-75
2022/07/30 03:58:49;;;;;;;2.05;1.85;;;19.50;56.00;;;;;;4805818;29;20027;-75
2022/07/30 04:01:16;;;;;;;2.22;2.03;;;19.50;56.00;;;;;;4795989;29;20265;-75
2022/07/30 04:03:44;;;;;;;2.13;1.77;;;19.60;56.30;;;;;;4796342;29;20277;-75
2022/07/30 04:06:10;;;;;;;2.22;1.60;;;19.60;56.30;;;;;;4797553;29;20228;-75
2022/07/30 04:08:36;;;;;;;2.17;1.50;;;19.50;56.10;;;;;;4813456;29;20800;-75
2022/07/30 04:11:02;;;;;;;1.85;1.75;;;19.60;56.40;;;;;;4797253;29;20066;-75
2022/07/30 04:13:43;;;;;;;2.20;1.70;;;19.60;56.40;;;;;;4796668;29;20038;-75
2022/07/30 04:16:18;;;;;;;1.85;1.75;;;19.60;56.40;;;;;;4812986;29;20060;-75
2022/07/30 04:18:49;;;;;;;3.42;1.77;;;19.60;56.50;;;;;;4796804;29;20037;-75
2022/07/30 04:21:19;;;;;;;2.80;2.10;;;19.60;57.10;;;;;;4797916;29;20030;-74
2022/07/30 04:23:48;;;;;;;3.35;1.55;;;19.70;56.70;;;;;;4814376;29;20556;-75
2022/07/30 04:26:15;;;;;;;1.63;1.33;;;19.70;56.70;;;;;;4812729;29;20078;-75
2022/07/30 04:28:41;;;;;;;1.60;1.50;;;19.70;56.70;;;;;;4797461;29;20053;-75
2022/07/30 04:31:09;;;;;;;2.17;1.73;;;19.70;56.80;;;;;;4792211;29;20040;-75
2022/07/30 04:33:36;;;;;;;2.10;1.52;;;19.70;56.80;;;;;;4803896;29;20393;-75
2022/07/30 04:36:09;;;;;;;3.08;2.22;;;19.70;56.80;;;;;;4824253;29;20696;-75
2022/07/30 04:38:36;;;;;;;2.38;2.10;;;19.70;56.90;;;;;;4811956;29;20398;-75
2022/07/30 04:41:03;;;;;;;2.42;1.58;;;19.70;56.90;;;;;;4827195;29;20082;-75
2022/07/30 04:43:40;;;;;;;2.50;1.42;;;19.70;56.90;;;;;;4813527;29;20042;-75
2022/07/30 04:46:07;;;;;;;2.50;1.60;;;19.70;57.00;;;;;;4812258;29;20039;-75
2022/07/30 04:48:33;;;;;;;2.25;1.67;;;19.70;57.00;;;;;;4794069;29;20056;-75
2022/07/30 04:51:33;;;;;;;2.03;1.50;;;19.80;57.20;;;;;;4796361;29;20680;-75
2022/07/30 04:54:00;;;;;;;3.08;1.92;;;19.80;57.30;;;;;;4796970;29;20038;-76
2022/07/30 04:56:29;;;;;;;3.17;1.60;;;19.70;57.00;;;;;;4812641;29;20038;-75
2022/07/30 04:58:57;;;;;;;1.92;1.40;;;19.80;57.30;;;;;;4798181;29;20065;-75
2022/07/30 05:01:36;;;;;;;2.72;1.48;;;19.80;57.30;;;;;;4790041;29;20508;-75
2022/07/30 05:04:04;;;;;;;1.73;1.45;;;19.80;57.30;;;;;;4812610;29;20089;-76
2022/07/30 05:06:32;;;;;;;2.17;1.75;;;19.80;57.30;;;;;;4814636;29;20031;-75
2022/07/30 05:08:59;;;;;;;1.75;1.63;;;19.90;57.50;;;;;;4814224;29;20393;-75
2022/07/30 05:11:25;;;;;;;2.10;1.25;;;19.90;57.50;;;;;;4798922;29;20041;-75
2022/07/30 05:13:51;;;;;;;2.85;1.40;;;19.90;57.50;;;;;;4814071;29;20030;-75
2022/07/30 05:16:21;;;;;;;2.00;1.60;;;19.90;57.50;;;;;;4813442;29;20501;-75
2022/07/30 05:18:47;;;;;;;2.25;1.45;;;20.00;57.60;;;;;;4798207;29;20572;-75
2022/07/30 05:21:14;;;;;;;1.38;1.13;;;20.00;57.60;;;;;;4799627;29;20057;-76
2022/07/30 05:23:46;;;;;;;2.78;1.52;;;20.00;57.60;;;;;;4799193;29;20038;-76
2022/07/30 05:26:35;;;;;;;1.83;1.50;;;20.00;57.60;;;;;;4810666;29;20433;-77
2022/07/30 05:29:02;;;;;;;2.53;1.50;;;20.10;57.60;;;;;;4798844;29;20038;-76
2022/07/30 05:31:41;;;;;;;2.70;1.63;;;20.10;57.60;;;;;;4797040;29;20292;-76
2022/07/30 05:34:07;;;;;;;1.40;1.30;;;20.20;57.70;;;;;;4795775;29;20042;-79
2022/07/30 05:36:43;;;;;;;2.03;1.40;;;20.20;57.60;;;;;;4812889;29;20043;-77
2022/07/30 05:39:11;;;;;;;2.60;1.52;;;20.30;57.70;;;;;;4798126;29;20475;-76
2022/07/30 05:41:57;;;;;;;1.30;1.17;;;20.30;57.50;;;;;;4794582;29;20118;-76
2022/07/30 05:44:40;;;;;;;1.23;1.13;;;20.40;57.70;;;;;;4796263;29;20038;-80
2022/07/30 05:47:06;;;;;;;1.58;1.30;;;20.40;57.50;;;;;;4810676;29;20034;-78
2022/07/30 05:49:32;;;;;;;1.50;1.38;;;20.50;57.70;;;;;;4812273;29;20045;-81
2022/07/30 05:52:05;;;;;;;4.22;1.60;;;20.50;57.70;;;;;;4811451;29;20039;-82
2022/07/30 05:54:31;;;;;;;1.83;1.30;;;20.60;58.00;;;;;;4812230;29;20026;-79
2022/07/30 05:57:15;;;;;;;2.17;1.52;;;20.60;58.30;;;;;;4796594;29;20033;-79
2022/07/30 05:59:59;;;;;;;1.65;1.30;;;20.60;58.50;;;;;;4827913;29;20028;-80
2022/07/30 06:02:48;;;;;;;3.13;1.88;;;20.70;59.00;;;;;;4811782;29;20030;-80
2022/07/30 06:05:33;;;;;;;2.78;2.30;;;20.60;58.70;;;;;;4809912;29;20046;-78
2022/07/30 06:08:00;;;;;;;3.03;1.40;;;20.60;59.00;;;;;;4814896;29;20325;-80
2022/07/30 06:10:28;;;;;;;3.10;1.58;;;20.60;59.30;;;;;;4797818;29;20031;-79
2022/07/30 06:12:54;;;;;;;3.33;1.38;;;20.60;59.50;;;;;;4812838;29;20037;-81
2022/07/30 06:15:20;;;;;;;1.83;1.45;;;20.60;59.60;;;;;;4798125;29;20148;-82
2022/07/30 06:17:47;;;;;;;1.50;1.27;;;20.60;59.80;;;;;;4811728;29;20437;-75
2022/07/30 06:20:19;;;;;;;4.55;1.58;;;20.60;60.30;;;;;;4804380;29;20461;-77
2022/07/30 06:22:56;;;;;;;4.13;1.40;;;20.60;59.80;;;;;;4797888;29;20590;-75
2022/07/30 06:25:31;;;;;;;2.88;1.73;;;20.60;59.70;;;;;;4799691;29;20038;-78
2022/07/30 06:27:57;;;;;;;2.08;1.50;;;20.60;59.80;;;;;;4800567;29;20030;-78
2022/07/30 06:30:23;;;;;;;3.53;1.70;;;20.50;59.80;;;;;;4785217;29;20472;-79
2022/07/30 06:32:49;;;;;;;3.78;1.90;;;20.60;60.00;;;;;;4818237;29;20138;-83
2022/07/30 06:35:17;;;;;;;2.92;1.67;;;20.60;60.00;;;;;;4812191;29;20652;-84
2022/07/30 06:37:43;;;;;;;1.95;1.73;;;20.60;59.90;;;;;;4796058;29;20054;-81
2022/07/30 06:40:11;;;;;;;3.38;1.60;;;20.60;59.90;;;;;;4798975;29;20437;-81
2022/07/30 06:43:00;;;;;;;3.50;1.50;;;20.60;59.80;;;;;;4813054;29;20031;-79
2022/07/30 06:45:33;;;;;;;3.30;2.13;;;20.60;59.70;;;;;;4797537;29;20035;-78
2022/07/30 06:48:19;;;;;;;2.63;1.88;;;20.70;59.80;;;;;;4817698;29;20381;-77
2022/07/30 06:50:45;;;;;;;4.78;1.80;;;20.70;59.70;;;;;;4814543;29;20030;-76
2022/07/30 06:53:11;;;;;;;3.42;1.60;;;20.70;59.60;;;;;;4817627;29;20047;-76
2022/07/30 06:56:03;;;;;;;6.20;1.77;;;20.60;59.40;;;;;;4815711;29;20034;-76
2022/07/30 06:58:40;;;;;;;2.78;1.85;;;20.60;59.40;;;;;;4801768;29;20655;-81
2022/07/30 07:01:24;;;;;;;3.00;1.95;;;20.60;59.40;;;;;;4816309;29;20704;-80
2022/07/30 07:03:51;;;;;;;2.20;2.00;;;20.60;59.40;;;;;;4797679;29;20038;-81
2022/07/30 07:06:17;;;;;;;3.90;1.95;;;20.60;59.40;;;;;;4814609;29;20079;-79
2022/07/30 07:08:43;;;;;;;5.70;2.30;;;20.60;59.40;;;;;;4812603;29;20037;-79
2022/07/30 07:11:13;;;;;;;3.65;2.42;;;20.60;59.40;;;;;;4818513;29;20045;-75
2022/07/30 07:13:59;;;;;;;3.95;2.47;;;20.60;59.40;;;;;;4816045;29;20038;-77
2022/07/30 07:16:32;;;;;;;2.83;2.50;;;20.60;59.40;;;;;;4802720;29;20041;-79
2022/07/30 07:19:02;;;;;;;3.53;2.13;;;20.60;59.60;;;;;;4800439;29;20038;-79
2022/07/30 07:21:29;;;;;;;2.80;2.10;;;20.70;60.00;;;;;;4799487;29;20643;-78
2022/07/30 07:23:55;;;;;;;3.78;2.42;;;20.70;60.10;;;;;;4815697;29;20042;-80
2022/07/30 07:26:53;;;;;;;3.17;2.00;;;20.60;60.20;;;;;;4804756;29;20034;-78
2022/07/30 07:29:39;;;;;;;3.53;2.30;;;20.70;60.50;;;;;;4814792;29;20021;-78
2022/07/30 07:32:08;;;;;;;2.42;2.22;;;20.60;60.50;;;;;;4820904;29;20042;-77
2022/07/30 07:34:35;;;;;;;2.35;2.10;;;20.70;60.80;;;;;;4800602;29;20311;-79
2022/07/30 07:37:01;;;;;;;2.30;1.92;;;20.70;61.00;;;;;;4797714;29;20085;-74
2022/07/30 07:39:27;;;;;;;3.45;2.25;;;20.70;61.00;;;;;;4814025;29;20438;-75
2022/07/30 07:41:54;;;;;;;2.00;1.80;;;20.80;61.20;;;;;;4796169;29;20215;-75
2022/07/30 07:44:22;;;;;;;2.15;1.58;;;20.80;61.10;;;;;;4810402;29;20466;-74
2022/07/30 07:46:48;;;;;;;3.35;2.47;;;20.90;61.30;;;;;;4795331;29;20061;-75
2022/07/30 07:49:14;;;;;;;2.13;1.63;;;21.00;61.30;;;;;;4812019;29;20057;-75
2022/07/30 07:51:49;;;;;;;3.38;1.58;;;21.00;61.20;;;;;;4796450;29;20206;-75
2022/07/30 07:54:19;;;;;;;2.97;1.40;;;21.10;61.30;;;;;;4796631;29;20042;-75
2022/07/30 07:56:47;;;;;;;1.95;1.73;;;21.10;61.20;;;;;;4795078;29;20049;-75
2022/07/30 07:59:13;;;;;;;1.60;1.27;;;21.20;61.30;;;;;;4794474;29;20051;-74
2022/07/30 08:01:39;;;;;;;2.58;1.40;;;21.30;61.40;;;;;;4796224;29;20503;-75
2022/07/30 08:04:44;;;;;;;1.88;1.25;;;21.40;61.30;;;;;;4816096;29;20430;-74
2022/07/30 08:07:10;;;;;;;3.30;1.52;;;21.60;61.30;;;;;;4813888;29;20049;-75
2022/07/30 08:09:38;;;;;;;1.92;1.40;;;21.80;61.30;;;;;;4816679;29;20055;-74
2022/07/30 08:12:27;;;;;;;1.40;1.30;;;22.00;61.20;;;;;;4809909;29;20487;-74
2022/07/30 08:14:53;;;;;;;1.63;1.08;;;22.30;61.20;;;;;;4811785;29;20030;-75
2022/07/30 08:17:45;;;;;;;1.65;1.35;;;22.40;61.00;;;;;;4813360;29;20045;-74
2022/07/30 08:20:15;;;;;;;1.80;1.20;;;22.60;60.90;;;;;;4815094;29;20373;-75
2022/07/30 08:22:42;;;;;;;1.42;1.15;;;22.80;60.80;;;;;;4796668;29;20110;-74
2022/07/30 08:25:09;;;;;;;1.35;1.25;;;23.00;60.90;;;;;;4811847;29;20728;-74
2022/07/30 08:27:35;;;;;;;1.13;1.05;;;23.20;60.90;;;;;;4798026;29;20045;-75
2022/07/30 08:30:06;;;;;;;1.20;0.90;;;23.20;60.70;;;;;;4812419;29;20098;-74
2022/07/30 08:32:33;;;;;;;2.47;1.33;;;23.30;60.70;;;;;;4812612;29;20030;-74
2022/07/30 08:35:00;;;;;;;1.55;1.05;;;23.40;60.60;;;;;;4812617;29;20298;-74
2022/07/30 08:37:26;;;;;;;1.10;1.00;;;23.60;60.70;;;;;;4810872;29;20047;-76
2022/07/30 08:39:52;;;;;;;1.35;0.90;;;23.80;60.80;;;;;;4799225;29;20573;-75
2022/07/30 08:42:18;;;;;;;1.95;0.80;;;23.90;60.60;;;;;;4815374;29;20038;-75
2022/07/30 08:44:45;;;;;;;2.45;1.05;;;24.00;60.50;;;;;;4815986;29;20365;-75
2022/07/30 08:47:17;;;;;;;1.30;0.80;;;24.10;60.50;;;;;;4813743;29;20061;-76
2022/07/30 08:50:04;;;;;;;1.08;0.80;;;24.10;60.30;;;;;;4816504;29;20047;-75
2022/07/30 08:52:37;;;;;;;0.60;0.60;;;24.20;60.40;;;;;;4799326;29;20053;-75
2022/07/30 08:55:07;;;;;;;3.70;1.42;;;24.20;60.30;;;;;;4801651;29;20039;-75
2022/07/30 08:57:34;;;;;;;1.20;0.82;;;24.20;60.20;;;;;;4815475;29;20408;-75
2022/07/30 09:00:01;;;;;;;0.60;0.50;;;24.30;60.20;;;;;;4816860;29;20086;-75
2022/07/30 09:02:30;;;;;;;0.82;0.75;;;24.40;60.30;;;;;;4814969;29;20260;-75
2022/07/30 09:05:03;;;;;;;1.38;0.88;;;24.40;60.20;;;;;;4817063;29;20113;-75
2022/07/30 09:07:32;;;;;;;6.25;1.67;;;24.50;60.30;;;;;;4801753;29;20438;-75
2022/07/30 09:09:59;;;;;;;0.85;0.73;;;24.50;60.20;;;;;;4788980;29;20033;-74
2022/07/30 09:12:39;;;;;;;1.10;0.70;;;24.60;60.30;;;;;;4817645;29;20031;-74
2022/07/30 09:15:17;;;;;;;0.93;0.70;;;24.70;60.20;;;;;;4800428;29;20066;-74
2022/07/30 09:17:51;;;;;;;2.88;0.90;;;25.00;60.30;;;;;;4802563;29;20037;-75
2022/07/30 09:20:23;;;;;;;0.73;0.73;;;25.40;59.90;;;;;;4815200;29;20593;-75
2022/07/30 09:22:53;;;;;;;1.98;0.95;;;25.70;59.20;;;;;;4814225;29;20053;-75
2022/07/30 09:25:37;;;;;;;1.33;1.00;;;26.20;58.80;;;;;;4817354;29;20042;-75
2022/07/30 09:28:30;;;;;;;1.17;0.80;;;26.70;58.20;;;;;;4817508;29;20069;-75
2022/07/30 09:31:15;;;;;;;4.15;0.98;;;27.20;57.40;;;;;;4822060;29;20046;-75
2022/07/30 09:34:00;;;;;;;1.20;0.73;;;27.70;56.70;;;;;;4823610;29;20099;-75
2022/07/30 09:36:41;;;;;;;0.77;0.65;;;28.10;56.10;;;;;;4821871;29;20485;-76
2022/07/30 09:39:42;;;;;;;1.55;0.68;;;28.50;55.50;;;;;;4812704;29;20397;-75
2022/07/30 09:42:22;;;;;;;1.00;0.70;;;28.80;55.10;;;;;;4834495;29;20046;-76
2022/07/30 09:45:03;;;;;;;1.48;0.50;;;29.00;55.40;;;;;;4831305;29;20054;-76
2022/07/30 09:47:34;;;;;;;1.07;0.60;;;29.20;54.50;;;;;;4830490;29;20026;-75
2022/07/30 09:50:08;;;;;;;0.60;0.60;;;29.30;54.10;;;;;;4816494;29;20038;-75
2022/07/30 09:52:36;;;;;;;0.85;0.80;;;29.50;53.90;;;;;;4832019;29;20030;-76
2022/07/30 09:55:02;;;;;;;1.33;0.60;;;29.60;53.80;;;;;;4817726;29;20478;-76
2022/07/30 09:57:29;;;;;;;1.10;0.70;;;29.60;53.50;;;;;;4800977;29;20511;-76
2022/07/30 10:00:17;;;;;;;1.98;0.55;;;29.70;53.40;;;;;;4797250;29;20150;-75
2022/07/30 10:02:49;;;;;;;1.58;0.60;;;29.80;53.10;;;;;;4798175;29;20489;-76
2022/07/30 10:05:51;;;;;;;0.68;0.47;;;29.90;53.10;;;;;;4815781;29;20107;-76
2022/07/30 10:08:17;;;;;;;0.80;0.55;;;29.90;52.90;;;;;;4813566;29;20042;-76
2022/07/30 10:10:45;;;;;;;0.70;0.50;;;29.90;52.90;;;;;;4799693;29;20087;-76
2022/07/30 10:13:13;;;;;;;1.85;1.00;;;29.80;52.80;;;;;;4798018;29;20405;-76
2022/07/30 10:15:39;;;;;;;1.60;0.95;;;29.80;52.70;;;;;;4801213;29;20830;-76
2022/07/30 10:18:06;;;;;;;1.08;0.80;;;29.70;52.70;;;;;;4800321;29;20049;-76
2022/07/30 10:20:54;;;;;;;0.82;0.43;;;29.60;52.90;;;;;;4798989;29;20042;-76
2022/07/30 10:23:40;;;;;;;1.48;0.73;;;29.50;53.00;;;;;;4817761;29;20087;-76
2022/07/30 10:26:26;;;;;;;1.23;0.75;;;29.40;53.10;;;;;;4817454;29;20038;-76
2022/07/30 10:29:24;;;;;;;0.90;0.50;;;29.40;53.10;;;;;;4795506;29;20106;-76
2022/07/30 10:31:50;;;;;;;2.53;0.77;;;29.30;53.30;;;;;;4800233;29;20038;-76
2022/07/30 10:34:18;;;;;;;0.73;0.63;;;29.20;53.20;;;;;;4815066;29;20102;-75
2022/07/30 10:36:49;;;;;;;1.02;0.60;;;29.10;53.30;;;;;;4815389;29;20363;-75
2022/07/30 10:39:23;;;;;;;1.30;0.70;;;29.00;53.30;;;;;;4810856;29;20461;-76
2022/07/30 10:42:07;;;;;;;0.70;0.70;;;29.00;53.40;;;;;;4802680;29;20783;-76
2022/07/30 10:44:45;;;;;;;2.08;0.75;;;29.10;53.50;;;;;;4814896;29;20080;-75
2022/07/30 10:47:15;;;;;;;0.90;0.60;;;29.30;53.20;;;;;;4813391;29;20038;-76
2022/07/30 10:50:01;;;;;;;1.00;0.50;;;29.60;53.00;;;;;;4799400;29;20504;-76
2022/07/30 10:52:45;;;;;;;1.42;0.60;;;29.80;52.80;;;;;;4783205;29;20068;-76
2022/07/30 10:55:13;;;;;;;0.30;0.30;;;29.90;52.60;;;;;;4813144;29;20739;-76
2022/07/30 10:58:08;;;;;;;1.70;0.50;;;30.00;52.70;;;;;;4816115;29;20364;-77
2022/07/30 11:00:55;;;;;;;3.72;0.90;;;29.80;53.30;;;;;;4816355;29;20034;-79
2022/07/30 11:03:26;;;;;;;2.40;0.63;;;29.80;53.60;;;;;;4802537;29;20062;-76
2022/07/30 11:06:15;;;;;;;2.03;0.52;;;29.60;54.30;;;;;;4813850;29;20046;-76
2022/07/30 11:08:44;;;;;;;1.65;0.43;;;29.20;54.90;;;;;;4797566;29;20461;-76
2022/07/30 11:11:21;;;;;;;1.70;0.40;;;29.00;55.20;;;;;;4816576;29;20034;-76
2022/07/30 11:13:58;;;;;;;1.83;0.30;;;28.70;55.70;;;;;;4808182;29;20049;-80
2022/07/30 11:16:45;;;;;;;1.10;0.50;;;28.40;56.10;;;;;;4798693;29;20078;-81
2022/07/30 11:19:21;;;;;;;1.33;0.50;;;28.10;56.50;;;;;;4815657;29;20066;-77
2022/07/30 11:22:25;;;;;;;3.60;0.93;;;27.90;56.90;;;;;;4812049;29;20363;-75
2022/07/30 11:24:52;;;;;;;1.85;0.43;;;27.70;57.50;;;;;;4813311;29;20081;-81
2022/07/30 11:27:36;;;;;;;11.07;1.17;;;27.40;57.70;;;;;;4816686;29;20042;-81
2022/07/30 11:30:28;;;;;;;2.70;0.70;;;27.30;58.30;;;;;;4814911;29;20049;-80
2022/07/30 11:32:55;;;;;;;5.72;0.70;;;27.30;58.70;;;;;;4812347;29;20023;-80
2022/07/30 11:35:31;;;;;;;3.05;0.60;;;27.20;58.50;;;;;;4816770;29;20042;-79
2022/07/30 11:38:11;;;;;;;2.38;0.80;;;27.30;58.60;;;;;;4814299;29;20062;-80
2022/07/30 11:40:49;;;;;;;1.50;0.40;;;27.40;58.50;;;;;;4813269;29;20400;-80
2022/07/30 11:43:22;;;;;;;4.03;0.73;;;27.50;58.40;;;;;;4806995;29;20604;-79
2022/07/30 11:45:51;;;;;;;2.05;0.88;;;27.70;58.20;;;;;;4810977;29;20046;-80
2022/07/30 11:48:18;;;;;;;2.60;1.10;;;27.70;58.10;;;;;;4814865;29;20069;-79
2022/07/30 11:50:46;;;;;;;1.98;0.65;;;27.80;58.10;;;;;;4800139;29;20054;-79
2022/07/30 11:53:18;;;;;;;2.17;0.57;;;27.80;58.10;;;;;;4786180;29;20109;-78
2022/07/30 11:55:59;;;;;;;4.57;0.70;;;27.80;58.10;;;;;;4800229;29;20114;-79
2022/07/30 11:58:27;;;;;;;6.35;1.08;;;27.90;58.10;;;;;;4817008;29;20049;-79
2022/07/30 12:01:14;;;;;;;1.27;0.50;;;28.00;58.00;;;;;;4796816;29;20154;-78
2022/07/30 12:03:43;;;;;;;2.95;0.60;;;28.10;58.00;;;;;;4797080;29;20045;-76
2022/07/30 12:06:20;;;;;;;2.05;0.70;;;28.20;57.70;;;;;;4814478;29;20060;-76
2022/07/30 12:08:48;;;;;;;1.13;0.63;;;28.30;57.40;;;;;;4816065;29;20041;-76
2022/07/30 12:11:14;;;;;;;2.33;0.88;;;28.50;57.20;;;;;;4814681;29;20034;-76
2022/07/30 12:13:44;;;;;;;2.63;1.15;;;28.50;57.10;;;;;;4804946;29;20022;-76
2022/07/30 12:16:16;;;;;;;1.58;0.80;;;28.50;57.10;;;;;;4815386;29;20030;-76
2022/07/30 12:18:43;;;;;;;2.13;1.05;;;28.50;57.10;;;;;;4799142;29;20042;-76
2022/07/30 12:21:11;;;;;;;1.73;0.90;;;28.60;57.00;;;;;;4815175;29;20048;-76
2022/07/30 12:23:37;;;;;;;2.13;0.65;;;28.60;56.90;;;;;;4815217;29;20079;-76
2022/07/30 12:26:04;;;;;;;1.13;0.70;;;28.70;56.80;;;;;;4815864;29;20718;-76
2022/07/30 12:28:34;;;;;;;1.92;1.05;;;28.80;56.60;;;;;;4814463;29;20257;-76
2022/07/30 12:31:03;;;;;;;0.80;0.80;;;28.90;56.50;;;;;;4818451;29;20127;-76
2022/07/30 12:33:29;;;;;;;1.90;1.10;;;29.00;56.30;;;;;;4813339;29;20066;-76
2022/07/30 12:35:58;;;;;;;2.75;1.10;;;29.20;55.90;;;;;;4813604;29;20045;-78
2022/07/30 12:38:26;;;;;;;2.70;1.60;;;29.40;55.40;;;;;;4814130;29;20145;-79
2022/07/30 12:40:52;;;;;;;1.20;1.08;;;29.60;55.00;;;;;;4813904;29;20564;-76
2022/07/30 12:43:43;;;;;;;2.80;1.30;;;29.70;55.30;;;;;;4811033;29;20047;-79
2022/07/30 12:46:11;;;;;;;3.22;1.70;;;29.70;54.40;;;;;;4813138;29;20034;-78
2022/07/30 12:48:37;;;;;;;5.28;1.63;;;29.60;54.30;;;;;;4796563;29;20842;-80
2022/07/30 12:51:05;;;;;;;4.28;2.08;;;29.60;54.20;;;;;;4816878;29;20030;-80
2022/07/30 12:53:31;;;;;;;3.88;1.55;;;29.60;54.00;;;;;;4811767;29;20046;-80
2022/07/30 12:56:15;;;;;;;3.53;1.63;;;29.40;54.10;;;;;;4811000;29;20038;-80
2022/07/30 12:58:42;;;;;;;2.47;1.42;;;29.30;54.30;;;;;;4815270;29;20064;-81
2022/07/30 13:01:09;;;;;;;4.18;1.98;;;29.30;54.50;;;;;;4800517;29;20034;-80
2022/07/30 13:03:38;;;;;;;8.20;3.17;;;29.30;54.40;;;;;;4813552;29;20050;-78
2022/07/30 13:06:30;;;;;;;4.78;3.05;;;29.50;54.40;;;;;;4816986;29;20038;-77
2022/07/30 13:08:58;;;;;;;3.90;2.28;;;29.60;54.30;;;;;;4812684;29;20803;-78
2022/07/30 13:11:26;;;;;;;4.43;1.85;;;29.60;54.10;;;;;;4798209;29;20073;-78